sensor_id;sensor_type;location;lat;lon;timestamp;pressure;altitude;pressure_sealevel;temperature;humidity
5298;BME280;14738;42.668;23.250;2023-12-28T00:01:08;48565.00;;;-141.90;71.37
5298;BME280;14738;42.668;23.250;2023-12-28T00:03:34;48576.91;;;-141.90;71.04
5298;BME280;14738;42.668;23.250;2023-12-28T00:05:59;48561.03;;;-141.90;71.42
5298;BME280;14738;42.668;23.250;2023-12-28T00:08:24;48568.97;;;-141.90;71.54
5298;BME280;14738;42.668;23.250;2023-12-28T00:10:50;48580.88;;;-141.90;72.32
5298;BME280;14738;42.668;23.250;2023-12-28T00:13:16;48586.84;;;-141.90;72.99
5298;BME280;14738;42.668;23.250;2023-12-28T00:15:41;48551.09;;;-141.90;73.35
5298;BME280;14738;42.668;23.250;2023-12-28T00:18:06;48539.19;;;-141.90;73.01
5298;BME280;14738;42.668;23.250;2023-12-28T00:20:32;48580.88;;;-141.90;72.79
5298;BME280;14738;42.668;23.250;2023-12-28T00:22:57;48576.91;;;-141.90;72.48
5298;BME280;14738;42.668;23.250;2023-12-28T00:25:23;48580.88;;;-141.90;73.49
5298;BME280;14738;42.668;23.250;2023-12-28T00:27:48;48594.78;;;-141.90;73.20
5298;BME280;14738;42.668;23.250;2023-12-28T00:30:14;48547.13;;;-141.90;73.83
5298;BME280;14738;42.668;23.250;2023-12-28T00:32:42;48576.91;;;-141.90;75.59
5298;BME280;14738;42.668;23.250;2023-12-28T00:35:09;48584.84;;;-141.90;75.99
5298;BME280;14738;42.668;23.250;2023-12-28T00:37:35;48574.94;;;-141.90;75.53
5298;BME280;14738;42.668;23.250;2023-12-28T00:40:00;48557.06;;;-141.90;74.84
5298;BME280;14738;42.668;23.250;2023-12-28T00:42:26;48555.09;;;-141.90;74.55
5298;BME280;14738;42.668;23.250;2023-12-28T00:44:51;48563.03;;;-141.90;74.84
5298;BME280;14738;42.668;23.250;2023-12-28T00:47:18;48563.03;;;-141.90;75.00
5298;BME280;14738;42.668;23.250;2023-12-28T00:49:43;48565.00;;;-141.90;75.54
5298;BME280;14738;42.668;23.250;2023-12-28T00:52:08;48576.91;;;-141.90;75.54
5298;BME280;14738;42.668;23.250;2023-12-28T00:54:35;48598.75;;;-141.90;75.58
5298;BME280;14738;42.668;23.250;2023-12-28T00:57:03;48590.81;;;-141.90;75.93
5298;BME280;14738;42.668;23.250;2023-12-28T00:59:28;48580.88;;;-141.90;76.43
5298;BME280;14738;42.668;23.250;2023-12-28T01:01:55;48580.88;;;-141.90;79.27
5298;BME280;14738;42.668;23.250;2023-12-28T01:04:21;48561.03;;;-141.90;85.67
5298;BME280;14738;42.668;23.250;2023-12-28T01:06:49;48580.88;;;-141.90;87.40
5298;BME280;14738;42.668;23.250;2023-12-28T01:09:14;48592.81;;;-141.90;87.51
5298;BME280;14738;42.668;23.250;2023-12-28T01:11:39;48574.94;;;-141.90;87.10
5298;BME280;14738;42.668;23.250;2023-12-28T01:14:05;48582.88;;;-141.90;86.83
5298;BME280;14738;42.668;23.250;2023-12-28T01:16:30;48596.78;;;-141.90;86.89
5298;BME280;14738;42.668;23.250;2023-12-28T01:18:56;48584.84;;;-141.90;87.34
5298;BME280;14738;42.668;23.250;2023-12-28T01:21:21;48588.84;;;-141.90;87.51
5298;BME280;14738;42.668;23.250;2023-12-28T01:23:46;48568.97;;;-141.90;87.81
5298;BME280;14738;42.668;23.250;2023-12-28T01:26:15;48588.84;;;-141.90;87.56
5298;BME280;14738;42.668;23.250;2023-12-28T01:28:40;48576.91;;;-141.90;87.50
5298;BME280;14738;42.668;23.250;2023-12-28T01:31:06;48584.84;;;-141.90;87.65
5298;BME280;14738;42.668;23.250;2023-12-28T01:33:31;48588.84;;;-141.90;88.08
5298;BME280;14738;42.668;23.250;2023-12-28T01:35:56;48567.00;;;-141.90;88.36
5298;BME280;14738;42.668;23.250;2023-12-28T01:38:22;48580.88;;;-141.90;88.18
5298;BME280;14738;42.668;23.250;2023-12-28T01:40:47;48604.72;;;-141.90;88.36
5298;BME280;14738;42.668;23.250;2023-12-28T01:43:13;48574.94;;;-141.90;88.12
5298;BME280;14738;42.668;23.250;2023-12-28T01:45:38;48568.97;;;-141.90;87.53
5298;BME280;14738;42.668;23.250;2023-12-28T01:48:04;48570.97;;;-141.90;87.48
5298;BME280;14738;42.668;23.250;2023-12-28T01:50:30;48578.91;;;-141.90;87.70
5298;BME280;14738;42.668;23.250;2023-12-28T01:52:58;48596.78;;;-141.90;88.03
5298;BME280;14738;42.668;23.250;2023-12-28T01:55:26;48586.84;;;-141.90;88.08
5298;BME280;14738;42.668;23.250;2023-12-28T01:57:52;48584.84;;;-141.90;88.41
5298;BME280;14738;42.668;23.250;2023-12-28T02:00:18;48604.72;;;-141.90;88.18
5298;BME280;14738;42.668;23.250;2023-12-28T02:02:44;48586.84;;;-141.90;88.23
5298;BME280;14738;42.668;23.250;2023-12-28T02:05:13;48578.91;;;-141.90;88.02
5298;BME280;14738;42.668;23.250;2023-12-28T02:07:39;48568.97;;;-141.90;88.05
5298;BME280;14738;42.668;23.250;2023-12-28T02:10:05;48616.63;;;-141.90;87.79
5298;BME280;14738;42.668;23.250;2023-12-28T02:12:31;48604.72;;;-141.90;87.91
5298;BME280;14738;42.668;23.250;2023-12-28T02:14:57;48620.59;;;-141.90;88.20
5298;BME280;14738;42.668;23.250;2023-12-28T02:17:33;48616.63;;;-141.90;88.13
5298;BME280;14738;42.668;23.250;2023-12-28T02:20:00;48584.84;;;-141.90;87.92
5298;BME280;14738;42.668;23.250;2023-12-28T02:22:27;48590.81;;;-141.90;87.70
5298;BME280;14738;42.668;23.250;2023-12-28T02:27:24;48561.03;;;-141.90;88.19
5298;BME280;14738;42.668;23.250;2023-12-28T02:29:50;48608.69;;;-141.90;87.86
5298;BME280;14738;42.668;23.250;2023-12-28T02:32:16;48592.81;;;-141.90;87.70
5298;BME280;14738;42.668;23.250;2023-12-28T02:34:44;48574.94;;;-141.90;86.84
5298;BME280;14738;42.668;23.250;2023-12-28T02:37:13;48596.78;;;-141.90;86.94
5298;BME280;14738;42.668;23.250;2023-12-28T02:39:42;48568.97;;;-141.90;87.62
5298;BME280;14738;42.668;23.250;2023-12-28T02:42:08;48561.03;;;-141.90;87.59
5298;BME280;14738;42.668;23.250;2023-12-28T02:44:34;48582.88;;;-141.90;87.59
5298;BME280;14738;42.668;23.250;2023-12-28T02:47:00;48584.84;;;-141.90;87.57
5298;BME280;14738;42.668;23.250;2023-12-28T02:49:25;48590.81;;;-141.90;87.58
5298;BME280;14738;42.668;23.250;2023-12-28T02:51:50;48614.63;;;-141.90;87.98
5298;BME280;14738;42.668;23.250;2023-12-28T02:54:16;48580.88;;;-141.90;88.20
5298;BME280;14738;42.668;23.250;2023-12-28T02:56:41;48559.06;;;-141.90;88.64
5298;BME280;14738;42.668;23.250;2023-12-28T02:59:06;48598.75;;;-141.90;88.66
5298;BME280;14738;42.668;23.250;2023-12-28T03:01:32;48580.88;;;-141.90;89.72
5298;BME280;14738;42.668;23.250;2023-12-28T03:03:57;48578.91;;;-141.90;89.78
5298;BME280;14738;42.668;23.250;2023-12-28T03:06:23;48561.03;;;-141.90;89.86
5298;BME280;14738;42.668;23.250;2023-12-28T03:08:48;48584.84;;;-141.90;89.66
5298;BME280;14738;42.668;23.250;2023-12-28T03:11:14;48567.00;;;-141.90;90.00
5298;BME280;14738;42.668;23.250;2023-12-28T03:13:39;48578.91;;;-141.90;90.13
5298;BME280;14738;42.668;23.250;2023-12-28T03:16:05;48604.72;;;-141.90;90.47
5298;BME280;14738;42.668;23.250;2023-12-28T03:18:30;48608.69;;;-141.90;93.59
5298;BME280;14738;42.668;23.250;2023-12-28T03:20:56;48568.97;;;-141.90;100.00
5298;BME280;14738;42.668;23.250;2023-12-28T03:23:21;48563.03;;;-141.90;100.00
5298;BME280;14738;42.668;23.250;2023-12-28T03:25:46;48598.75;;;-141.90;100.00
5298;BME280;14738;42.668;23.250;2023-12-28T03:28:12;48586.84;;;-141.90;100.00
5298;BME280;14738;42.668;23.250;2023-12-28T03:30:37;48606.69;;;-141.90;100.00
5298;BME280;14738;42.668;23.250;2023-12-28T03:33:03;48612.66;;;-141.90;100.00
5298;BME280;14738;42.668;23.250;2023-12-28T03:35:28;48624.56;;;-141.90;100.00
5298;BME280;14738;42.668;23.250;2023-12-28T03:37:54;48557.06;;;-141.90;100.00
5298;BME280;14738;42.668;23.250;2023-12-28T03:40:19;48561.03;;;-141.90;100.00
5298;BME280;14738;42.668;23.250;2023-12-28T03:42:45;48588.84;;;-141.90;100.00
5298;BME280;14738;42.668;23.250;2023-12-28T03:45:11;48624.56;;;-141.90;100.00
5298;BME280;14738;42.668;23.250;2023-12-28T03:47:37;48616.63;;;-141.90;100.00
5298;BME280;14738;42.668;23.250;2023-12-28T03:50:02;48616.63;;;-141.90;100.00
5298;BME280;14738;42.668;23.250;2023-12-28T03:52:28;48614.63;;;-141.90;100.00
5298;BME280;14738;42.668;23.250;2023-12-28T03:54:57;48588.84;;;-141.90;100.00
5298;BME280;14738;42.668;23.250;2023-12-28T03:57:22;48592.81;;;-141.90;100.00
5298;BME280;14738;42.668;23.250;2023-12-28T03:59:48;48620.59;;;-141.90;100.00
5298;BME280;14738;42.668;23.250;2023-12-28T04:02:13;48576.91;;;-141.90;100.00
5298;BME280;14738;42.668;23.250;2023-12-28T04:04:39;48628.53;;;-141.90;100.00
5298;BME280;14738;42.668;23.250;2023-12-28T04:07:05;48612.66;;;-141.90;100.00
5298;BME280;14738;42.668;23.250;2023-12-28T04:09:33;48600.75;;;-141.90;100.00
5298;BME280;14738;42.668;23.250;2023-12-28T04:11:58;48614.63;;;-141.90;100.00
5298;BME280;14738;42.668;23.250;2023-12-28T04:14:23;48610.66;;;-141.90;100.00
5298;BME280;14738;42.668;23.250;2023-12-28T04:16:49;48616.63;;;-141.90;100.00
5298;BME280;14738;42.668;23.250;2023-12-28T04:19:14;48628.53;;;-141.90;100.00
5298;BME280;14738;42.668;23.250;2023-12-28T04:21:43;48588.84;;;-141.90;100.00
5298;BME280;14738;42.668;23.250;2023-12-28T04:24:08;48600.75;;;-141.90;100.00
5298;BME280;14738;42.668;23.250;2023-12-28T04:26:34;48650.38;;;-141.90;100.00
5298;BME280;14738;42.668;23.250;2023-12-28T04:28:59;48610.66;;;-141.90;100.00
5298;BME280;14738;42.668;23.250;2023-12-28T04:31:25;48612.66;;;-141.90;100.00
5298;BME280;14738;42.668;23.250;2023-12-28T04:33:50;48630.53;;;-141.90;100.00
5298;BME280;14738;42.668;23.250;2023-12-28T04:36:16;48604.72;;;-141.90;100.00
5298;BME280;14738;42.668;23.250;2023-12-28T04:38:41;48602.72;;;-141.90;100.00
5298;BME280;14738;42.668;23.250;2023-12-28T04:41:09;48600.75;;;-141.90;100.00
5298;BME280;14738;42.668;23.250;2023-12-28T04:43:34;48654.34;;;-141.90;100.00
5298;BME280;14738;42.668;23.250;2023-12-28T04:46:03;48624.56;;;-141.90;100.00
5298;BME280;14738;42.668;23.250;2023-12-28T04:48:29;48622.59;;;-141.90;100.00
5298;BME280;14738;42.668;23.250;2023-12-28T04:50:54;48620.59;;;-141.90;100.00
5298;BME280;14738;42.668;23.250;2023-12-28T04:53:20;48606.69;;;-141.90;100.00
5298;BME280;14738;42.668;23.250;2023-12-28T04:55:45;48612.66;;;-141.90;100.00
5298;BME280;14738;42.668;23.250;2023-12-28T04:58:11;48612.66;;;-141.90;100.00
5298;BME280;14738;42.668;23.250;2023-12-28T05:00:37;48604.72;;;-141.90;100.00
5298;BME280;14738;42.668;23.250;2023-12-28T05:03:02;48588.84;;;-141.90;100.00
5298;BME280;14738;42.668;23.250;2023-12-28T05:05:28;48604.72;;;-141.90;100.00
5298;BME280;14738;42.668;23.250;2023-12-28T05:07:53;48632.50;;;-141.90;100.00
5298;BME280;14738;42.668;23.250;2023-12-28T05:10:18;48620.59;;;-141.90;100.00
5298;BME280;14738;42.668;23.250;2023-12-28T05:12:44;48620.59;;;-141.90;100.00
5298;BME280;14738;42.668;23.250;2023-12-28T05:15:10;48612.66;;;-141.90;100.00
5298;BME280;14738;42.668;23.250;2023-12-28T05:17:35;48652.38;;;-141.90;100.00
5298;BME280;14738;42.668;23.250;2023-12-28T05:20:00;48630.53;;;-141.90;100.00
5298;BME280;14738;42.668;23.250;2023-12-28T05:22:26;48604.72;;;-141.90;100.00
5298;BME280;14738;42.668;23.250;2023-12-28T05:24:51;48608.69;;;-141.90;100.00
5298;BME280;14738;42.668;23.250;2023-12-28T05:27:17;48620.59;;;-141.90;100.00
5298;BME280;14738;42.668;23.250;2023-12-28T05:29:42;48612.66;;;-141.90;100.00
5298;BME280;14738;42.668;23.250;2023-12-28T05:32:07;48620.59;;;-141.90;100.00
5298;BME280;14738;42.668;23.250;2023-12-28T05:34:33;48614.63;;;-141.90;100.00
5298;BME280;14738;42.668;23.250;2023-12-28T05:36:58;48628.53;;;-141.90;100.00
5298;BME280;14738;42.668;23.250;2023-12-28T05:39:23;48618.59;;;-141.90;100.00
5298;BME280;14738;42.668;23.250;2023-12-28T05:41:49;48614.63;;;-141.90;100.00
5298;BME280;14738;42.668;23.250;2023-12-28T05:44:16;48606.69;;;-141.90;100.00
5298;BME280;14738;42.668;23.250;2023-12-28T05:46:41;48600.75;;;-141.90;100.00
5298;BME280;14738;42.668;23.250;2023-12-28T05:49:07;48638.47;;;-141.90;100.00
5298;BME280;14738;42.668;23.250;2023-12-28T05:51:41;48606.69;;;-141.90;100.00
5298;BME280;14738;42.668;23.250;2023-12-28T05:54:07;48588.84;;;-141.90;100.00
5298;BME280;14738;42.668;23.250;2023-12-28T05:56:33;48598.75;;;-141.90;100.00
5298;BME280;14738;42.668;23.250;2023-12-28T05:58:58;48632.50;;;-141.90;100.00
5298;BME280;14738;42.668;23.250;2023-12-28T06:01:24;48610.66;;;-141.90;100.00
5298;BME280;14738;42.668;23.250;2023-12-28T06:03:49;48610.66;;;-141.90;100.00
5298;BME280;14738;42.668;23.250;2023-12-28T06:06:17;48610.66;;;-141.90;100.00
5298;BME280;14738;42.668;23.250;2023-12-28T06:08:43;48616.63;;;-141.90;100.00
5298;BME280;14738;42.668;23.250;2023-12-28T06:11:08;48616.63;;;-141.90;100.00
5298;BME280;14738;42.668;23.250;2023-12-28T06:13:34;48600.75;;;-141.90;100.00
5298;BME280;14738;42.668;23.250;2023-12-28T06:15:59;48594.78;;;-141.90;100.00
5298;BME280;14738;42.668;23.250;2023-12-28T06:18:25;48592.81;;;-141.90;100.00
5298;BME280;14738;42.668;23.250;2023-12-28T06:20:50;48596.78;;;-141.90;100.00
5298;BME280;14738;42.668;23.250;2023-12-28T06:23:15;48588.84;;;-141.90;100.00
5298;BME280;14738;42.668;23.250;2023-12-28T06:25:41;48592.81;;;-141.90;100.00
5298;BME280;14738;42.668;23.250;2023-12-28T06:28:06;48580.88;;;-141.90;100.00
5298;BME280;14738;42.668;23.250;2023-12-28T06:30:31;48580.88;;;-141.90;100.00
5298;BME280;14738;42.668;23.250;2023-12-28T06:32:57;48608.69;;;-141.90;100.00
5298;BME280;14738;42.668;23.250;2023-12-28T06:35:23;48588.84;;;-141.90;100.00
5298;BME280;14738;42.668;23.250;2023-12-28T06:37:48;48568.97;;;-141.90;100.00
5298;BME280;14738;42.668;23.250;2023-12-28T06:40:13;48565.00;;;-141.90;100.00
5298;BME280;14738;42.668;23.250;2023-12-28T06:42:39;48576.91;;;-141.90;100.00
5298;BME280;14738;42.668;23.250;2023-12-28T06:45:06;48570.97;;;-141.90;100.00
5298;BME280;14738;42.668;23.250;2023-12-28T06:47:32;48580.88;;;-141.90;100.00
5298;BME280;14738;42.668;23.250;2023-12-28T06:49:57;48592.81;;;-141.90;100.00
5298;BME280;14738;42.668;23.250;2023-12-28T06:52:22;48572.94;;;-141.90;100.00
5298;BME280;14738;42.668;23.250;2023-12-28T06:54:50;48557.06;;;-141.90;100.00
5298;BME280;14738;42.668;23.250;2023-12-28T06:57:16;48551.09;;;-141.90;100.00
5298;BME280;14738;42.668;23.250;2023-12-28T06:59:41;48576.91;;;-141.90;100.00
5298;BME280;14738;42.668;23.250;2023-12-28T07:02:07;48574.94;;;-141.90;100.00
5298;BME280;14738;42.668;23.250;2023-12-28T07:04:32;48576.91;;;-141.90;100.00
5298;BME280;14738;42.668;23.250;2023-12-28T07:06:58;48574.94;;;-141.90;100.00
5298;BME280;14738;42.668;23.250;2023-12-28T07:09:23;48545.16;;;-141.90;100.00
5298;BME280;14738;42.668;23.250;2023-12-28T07:11:49;48576.91;;;-141.90;100.00
5298;BME280;14738;42.668;23.250;2023-12-28T07:14:14;48570.97;;;-141.90;100.00
5298;BME280;14738;42.668;23.250;2023-12-28T07:16:39;48553.09;;;-141.90;100.00
5298;BME280;14738;42.668;23.250;2023-12-28T07:19:05;48565.00;;;-141.90;100.00
5298;BME280;14738;42.668;23.250;2023-12-28T07:21:30;48576.91;;;-141.90;100.00
5298;BME280;14738;42.668;23.250;2023-12-28T07:23:56;48555.09;;;-141.90;100.00
5298;BME280;14738;42.668;23.250;2023-12-28T07:26:21;48533.25;;;-141.90;100.00
5298;BME280;14738;42.668;23.250;2023-12-28T07:28:46;48549.13;;;-141.90;100.00
5298;BME280;14738;42.668;23.250;2023-12-28T07:31:24;48582.88;;;-141.90;100.00
5298;BME280;14738;42.668;23.250;2023-12-28T07:33:49;48545.16;;;-141.90;100.00
5298;BME280;14738;42.668;23.250;2023-12-28T07:36:15;48527.28;;;-141.90;100.00
5298;BME280;14738;42.668;23.250;2023-12-28T07:38:40;48563.03;;;-141.90;100.00
5298;BME280;14738;42.668;23.250;2023-12-28T07:41:06;48521.34;;;-141.90;100.00
5298;BME280;14738;42.668;23.250;2023-12-28T07:43:31;48539.19;;;-141.90;100.00
5298;BME280;14738;42.668;23.250;2023-12-28T07:45:56;48561.03;;;-141.90;100.00
5298;BME280;14738;42.668;23.250;2023-12-28T07:48:22;48525.31;;;-141.90;100.00
5298;BME280;14738;42.668;23.250;2023-12-28T07:50:47;48567.00;;;-141.90;100.00
5298;BME280;14738;42.668;23.250;2023-12-28T07:53:14;48541.19;;;-141.90;100.00
5298;BME280;14738;42.668;23.250;2023-12-28T07:55:39;48567.00;;;-141.90;100.00
5298;BME280;14738;42.668;23.250;2023-12-28T07:58:05;48533.25;;;-141.90;100.00
5298;BME280;14738;42.668;23.250;2023-12-28T08:00:30;48543.16;;;-141.90;100.00
5298;BME280;14738;42.668;23.250;2023-12-28T08:02:56;48525.31;;;-141.90;100.00
5298;BME280;14738;42.668;23.250;2023-12-28T08:05:21;48537.22;;;-141.90;100.00
5298;BME280;14738;42.668;23.250;2023-12-28T08:07:46;48521.34;;;-141.90;100.00
5298;BME280;14738;42.668;23.250;2023-12-28T08:10:12;48517.34;;;-141.90;100.00
5298;BME280;14738;42.668;23.250;2023-12-28T08:12:37;48507.44;;;-141.90;100.00
5298;BME280;14738;42.668;23.250;2023-12-28T08:15:03;48523.31;;;-141.90;100.00
5298;BME280;14738;42.668;23.250;2023-12-28T08:17:28;48555.09;;;-141.90;100.00
5298;BME280;14738;42.668;23.250;2023-12-28T08:19:54;48521.34;;;-141.90;100.00
5298;BME280;14738;42.668;23.250;2023-12-28T08:22:20;48507.44;;;-141.90;100.00
5298;BME280;14738;42.668;23.250;2023-12-28T08:24:45;48521.34;;;-141.90;100.00
5298;BME280;14738;42.668;23.250;2023-12-28T08:27:11;48517.34;;;-141.90;100.00
5298;BME280;14738;42.668;23.250;2023-12-28T08:29:36;48525.31;;;-141.90;100.00
5298;BME280;14738;42.668;23.250;2023-12-28T08:32:02;48489.56;;;-141.90;100.00
5298;BME280;14738;42.668;23.250;2023-12-28T08:34:27;48503.47;;;-141.90;100.00
5298;BME280;14738;42.668;23.250;2023-12-28T08:36:53;48495.53;;;-141.90;100.00
5298;BME280;14738;42.668;23.250;2023-12-28T08:39:18;48501.47;;;-141.90;100.00
5298;BME280;14738;42.668;23.250;2023-12-28T08:41:44;48501.47;;;-141.90;100.00
5298;BME280;14738;42.668;23.250;2023-12-28T08:44:09;48493.53;;;-141.90;100.00
5298;BME280;14738;42.668;23.250;2023-12-28T08:46:34;48513.38;;;-141.90;100.00
5298;BME280;14738;42.668;23.250;2023-12-28T08:49:00;48497.50;;;-141.90;100.00
5298;BME280;14738;42.668;23.250;2023-12-28T08:51:25;48501.47;;;-141.90;100.00
5298;BME280;14738;42.668;23.250;2023-12-28T08:53:50;48493.53;;;-141.90;100.00
5298;BME280;14738;42.668;23.250;2023-12-28T08:56:17;48505.44;;;-141.90;100.00
5298;BME280;14738;42.668;23.250;2023-12-28T08:58:44;48503.47;;;-141.90;100.00
5298;BME280;14738;42.668;23.250;2023-12-28T09:01:24;48477.66;;;-141.90;100.00
5298;BME280;14738;42.668;23.250;2023-12-28T09:03:54;48485.59;;;-141.90;100.00
5298;BME280;14738;42.668;23.250;2023-12-28T09:06:20;48497.50;;;-141.90;100.00
5298;BME280;14738;42.668;23.250;2023-12-28T09:08:50;48493.53;;;-141.90;100.00
5298;BME280;14738;42.668;23.250;2023-12-28T09:11:16;48457.81;;;-141.90;100.00
5298;BME280;14738;42.668;23.250;2023-12-28T09:13:41;48493.53;;;-141.90;100.00
5298;BME280;14738;42.668;23.250;2023-12-28T09:16:10;48503.47;;;-141.90;100.00
5298;BME280;14738;42.668;23.250;2023-12-28T09:18:36;48485.59;;;-141.90;100.00
5298;BME280;14738;42.668;23.250;2023-12-28T09:21:08;48501.47;;;-141.90;100.00
5298;BME280;14738;42.668;23.250;2023-12-28T09:23:35;48489.56;;;-141.90;100.00
5298;BME280;14738;42.668;23.250;2023-12-28T09:26:01;48467.72;;;-141.90;100.00
5298;BME280;14738;42.668;23.250;2023-12-28T09:28:31;48477.66;;;-141.90;100.00
5298;BME280;14738;42.668;23.250;2023-12-28T09:30:56;48469.72;;;-141.90;100.00
5298;BME280;14738;42.668;23.250;2023-12-28T09:33:22;48473.69;;;-141.90;100.00
5298;BME280;14738;42.668;23.250;2023-12-28T09:35:48;48489.56;;;-141.90;100.00
5298;BME280;14738;42.668;23.250;2023-12-28T09:38:14;48455.81;;;-141.90;100.00
5298;BME280;14738;42.668;23.250;2023-12-28T09:40:42;48465.75;;;-141.90;100.00
5298;BME280;14738;42.668;23.250;2023-12-28T09:43:37;48471.69;;;-141.90;100.00
5298;BME280;14738;42.668;23.250;2023-12-28T09:46:06;48483.59;;;-141.90;100.00
5298;BME280;14738;42.668;23.250;2023-12-28T09:48:37;48497.50;;;-141.90;100.00
5298;BME280;14738;42.668;23.250;2023-12-28T09:51:04;48493.53;;;-141.90;100.00
5298;BME280;14738;42.668;23.250;2023-12-28T09:53:30;48495.53;;;-141.90;100.00
5298;BME280;14738;42.668;23.250;2023-12-28T09:55:56;48485.59;;;-141.90;100.00
5298;BME280;14738;42.668;23.250;2023-12-28T09:58:22;48481.63;;;-141.90;100.00
5298;BME280;14738;42.668;23.250;2023-12-28T10:00:49;48503.47;;;-141.90;100.00
5298;BME280;14738;42.668;23.250;2023-12-28T10:03:16;48499.50;;;-141.90;100.00
5298;BME280;14738;42.668;23.250;2023-12-28T10:05:43;48495.53;;;-141.90;100.00
5298;BME280;14738;42.668;23.250;2023-12-28T10:08:15;48469.72;;;-141.90;100.00
5298;BME280;14738;42.668;23.250;2023-12-28T10:10:42;48475.66;;;-141.90;100.00
5298;BME280;14738;42.668;23.250;2023-12-28T10:13:08;48469.72;;;-141.90;100.00
5298;BME280;14738;42.668;23.250;2023-12-28T10:15:35;48481.63;;;-141.90;100.00
5298;BME280;14738;42.668;23.250;2023-12-28T10:18:01;48481.63;;;-141.90;100.00
5298;BME280;14738;42.668;23.250;2023-12-28T10:20:27;48473.69;;;-141.90;100.00
5298;BME280;14738;42.668;23.250;2023-12-28T10:22:52;48453.81;;;-141.90;100.00
5298;BME280;14738;42.668;23.250;2023-12-28T10:25:18;48477.66;;;-141.90;100.00
5298;BME280;14738;42.668;23.250;2023-12-28T10:27:44;48485.59;;;-141.90;100.00
5298;BME280;14738;42.668;23.250;2023-12-28T10:30:10;48477.66;;;-141.90;100.00
5298;BME280;14738;42.668;23.250;2023-12-28T10:32:39;48465.75;;;-141.90;100.00
5298;BME280;14738;42.668;23.250;2023-12-28T10:35:05;48485.59;;;-141.90;100.00
5298;BME280;14738;42.668;23.250;2023-12-28T10:37:32;48493.53;;;-141.90;100.00
5298;BME280;14738;42.668;23.250;2023-12-28T10:39:59;48479.63;;;-141.90;100.00
5298;BME280;14738;42.668;23.250;2023-12-28T10:42:31;48483.59;;;-141.90;100.00
5298;BME280;14738;42.668;23.250;2023-12-28T10:45:05;48469.72;;;-141.90;100.00
5298;BME280;14738;42.668;23.250;2023-12-28T10:47:38;48461.78;;;-141.90;47.01
5298;BME280;14738;42.668;23.250;2023-12-28T10:50:05;48467.72;;;-141.90;46.95
5298;BME280;14738;42.668;23.250;2023-12-28T10:52:32;48475.66;;;-141.90;46.50
5298;BME280;14738;42.668;23.250;2023-12-28T10:58:12;48497.50;;;-141.90;46.41
5298;BME280;14738;42.668;23.250;2023-12-28T11:01:06;48479.63;;;-141.90;47.14
5298;BME280;14738;42.668;23.250;2023-12-28T11:03:37;48469.72;;;-141.90;46.55
5298;BME280;14738;42.668;23.250;2023-12-28T11:06:04;48481.63;;;-141.90;46.46
5298;BME280;14738;42.668;23.250;2023-12-28T11:08:32;48455.81;;;-141.90;46.59
5298;BME280;14738;42.668;23.250;2023-12-28T11:10:59;48453.81;;;-141.90;46.49
5298;BME280;14738;42.668;23.250;2023-12-28T11:13:32;48481.63;;;-141.90;46.53
5298;BME280;14738;42.668;23.250;2023-12-28T11:15:58;48459.78;;;-141.90;46.04
5298;BME280;14738;42.668;23.250;2023-12-28T11:18:25;48449.84;;;-141.90;46.06
5298;BME280;14738;42.668;23.250;2023-12-28T11:20:53;48489.56;;;-141.90;45.67
5298;BME280;14738;42.668;23.250;2023-12-28T11:23:18;48465.75;;;-141.90;46.20
5298;BME280;14738;42.668;23.250;2023-12-28T11:25:44;48453.81;;;-141.90;46.30
5298;BME280;14738;42.668;23.250;2023-12-28T11:28:11;48449.84;;;-141.90;46.20
5298;BME280;14738;42.668;23.250;2023-12-28T11:30:38;48453.81;;;-141.90;46.03
5298;BME280;14738;42.668;23.250;2023-12-28T11:33:06;48473.69;;;-141.90;45.49
5298;BME280;14738;42.668;23.250;2023-12-28T11:35:36;48449.84;;;-141.90;45.87
5298;BME280;14738;42.668;23.250;2023-12-28T11:38:03;48449.84;;;-141.90;45.52
5298;BME280;14738;42.668;23.250;2023-12-28T11:40:40;48461.78;;;-141.90;45.74
5298;BME280;14738;42.668;23.250;2023-12-28T11:43:15;48441.91;;;-141.90;46.02
5298;BME280;14738;42.668;23.250;2023-12-28T11:45:50;48465.75;;;-141.90;46.03
5298;BME280;14738;42.668;23.250;2023-12-28T11:48:25;48451.84;;;-141.90;45.72
5298;BME280;14738;42.668;23.250;2023-12-28T11:50:59;48483.59;;;-141.90;45.66
5298;BME280;14738;42.668;23.250;2023-12-28T11:53:25;48479.63;;;-141.90;45.68
5298;BME280;14738;42.668;23.250;2023-12-28T11:55:51;48477.66;;;-141.90;45.81
5298;BME280;14738;42.668;23.250;2023-12-28T11:58:17;48443.91;;;-141.90;45.55
5298;BME280;14738;42.668;23.250;2023-12-28T12:00:43;48455.81;;;-141.90;45.55
5298;BME280;14738;42.668;23.250;2023-12-28T12:03:12;48451.84;;;-141.90;45.53
5298;BME280;14738;42.668;23.250;2023-12-28T12:05:38;48453.81;;;-141.90;45.50
5298;BME280;14738;42.668;23.250;2023-12-28T12:08:05;48473.69;;;-141.90;45.78
5298;BME280;14738;42.668;23.250;2023-12-28T12:10:30;48473.69;;;-141.90;45.21
5298;BME280;14738;42.668;23.250;2023-12-28T12:12:57;48449.84;;;-141.90;45.42
5298;BME280;14738;42.668;23.250;2023-12-28T12:15:22;48469.72;;;-141.90;45.31
5298;BME280;14738;42.668;23.250;2023-12-28T12:17:48;48443.91;;;-141.90;44.99
5298;BME280;14738;42.668;23.250;2023-12-28T12:20:14;48477.66;;;-141.90;45.21
5298;BME280;14738;42.668;23.250;2023-12-28T12:22:39;48461.78;;;-141.90;45.18
5298;BME280;14738;42.668;23.250;2023-12-28T12:25:05;48445.88;;;-141.90;44.81
5298;BME280;14738;42.668;23.250;2023-12-28T12:27:31;48471.69;;;-141.90;44.71
5298;BME280;14738;42.668;23.250;2023-12-28T12:29:57;48439.94;;;-141.90;44.99
5298;BME280;14738;42.668;23.250;2023-12-28T12:32:23;48445.88;;;-141.90;44.67
5298;BME280;14738;42.668;23.250;2023-12-28T12:34:50;48418.09;;;-141.90;44.16